Time;durP1;ratioP1;P1;durP2;ratioP2;P2;SDS_P1;SDS_P2;PMS_P1;PMS_P2;Temp;Humidity;BMP_temperature;BMP_pressure;BME280_temperature;BME280_humidity;BME280_pressure;Samples;Min_cycle;Max_cycle;Signal;HPM_P1;HPM_P2
2023/07/07 00:01:52;;;;;;;3.47;3.17;;;13.00;99.90;;;;;;5003983;28;20034;-79
2023/07/07 00:04:17;;;;;;;3.60;3.17;;;13.00;99.90;;;;;;5026804;28;20088;-79
2023/07/07 00:06:44;;;;;;;3.75;3.40;;;13.00;99.90;;;;;;5000611;28;20052;-79
2023/07/07 00:09:09;;;;;;;3.80;3.42;;;13.00;99.90;;;;;;5011436;28;20029;-79
2023/07/07 00:11:35;;;;;;;3.45;3.15;;;13.00;99.90;;;;;;5008072;28;20026;-79
2023/07/07 00:14:01;;;;;;;5.97;3.40;;;13.00;99.90;;;;;;5010268;28;20032;-79
2023/07/07 00:16:30;;;;;;;4.80;3.95;;;13.00;99.90;;;;;;5008288;28;20026;-79
2023/07/07 00:18:57;;;;;;;7.80;4.47;;;13.10;99.90;;;;;;5022367;28;20037;-79
2023/07/07 00:21:24;;;;;;;13.60;4.28;;;13.00;99.90;;;;;;5016406;28;20026;-79
2023/07/07 00:23:56;;;;;;;3.75;3.45;;;13.00;99.90;;;;;;5010282;28;20022;-79
2023/07/07 00:26:24;;;;;;;5.68;4.15;;;13.00;99.90;;;;;;4999623;28;20040;-79
2023/07/07 00:28:50;;;;;;;5.45;4.32;;;13.00;99.90;;;;;;5019810;28;20106;-79
2023/07/07 00:31:18;;;;;;;6.03;3.72;;;13.00;99.90;;;;;;5009995;28;20037;-79
2023/07/07 00:33:44;;;;;;;4.72;3.47;;;13.00;99.90;;;;;;5006831;28;20026;-80
2023/07/07 00:36:10;;;;;;;5.03;3.70;;;13.00;99.90;;;;;;5007732;28;20029;-79
2023/07/07 00:38:35;;;;;;;3.95;3.60;;;13.00;99.90;;;;;;5003812;28;20556;-78
2023/07/07 00:41:03;;;;;;;4.55;3.88;;;13.00;99.90;;;;;;5030946;28;20061;-78
2023/07/07 00:43:29;;;;;;;4.80;3.83;;;13.00;99.90;;;;;;5023035;28;20036;-79
2023/07/07 00:45:56;;;;;;;5.50;4.20;;;13.00;99.90;;;;;;5006506;28;20022;-79
2023/07/07 00:48:26;;;;;;;4.45;3.75;;;12.90;99.90;;;;;;5011662;28;20508;-79
2023/07/07 00:51:13;;;;;;;3.97;3.67;;;12.90;99.90;;;;;;5023941;28;20021;-79
2023/07/07 00:53:42;;;;;;;4.47;4.00;;;12.90;99.90;;;;;;5007926;28;20026;-79
2023/07/07 00:56:14;;;;;;;4.13;3.83;;;12.90;99.90;;;;;;5011078;28;20048;-80
2023/07/07 00:58:42;;;;;;;4.75;4.28;;;12.90;99.90;;;;;;5028492;28;20033;-79
2023/07/07 01:01:14;;;;;;;8.35;4.72;;;12.90;99.90;;;;;;4996103;28;20045;-79
2023/07/07 01:03:42;;;;;;;4.65;4.22;;;12.90;99.90;;;;;;5026287;28;20112;-80
2023/07/07 01:06:12;;;;;;;5.10;4.50;;;12.90;99.90;;;;;;5017926;28;20026;-79
2023/07/07 01:08:41;;;;;;;4.68;4.28;;;12.90;99.90;;;;;;5026524;28;20025;-79
2023/07/07 01:11:07;;;;;;;5.95;4.38;;;12.90;99.90;;;;;;5007377;28;20029;-79
2023/07/07 01:13:33;;;;;;;5.18;4.60;;;12.90;99.90;;;;;;5015323;28;20026;-79
2023/07/07 01:16:29;;;;;;;4.80;4.28;;;12.80;99.90;;;;;;5003332;28;20051;-79
2023/07/07 01:19:15;;;;;;;4.85;4.40;;;12.80;99.90;;;;;;5007161;28;20348;-79
2023/07/07 01:22:16;;;;;;;5.00;4.10;;;12.80;99.90;;;;;;5021480;28;20056;-79
2023/07/07 01:25:00;;;;;;;5.57;4.30;;;12.70;99.90;;;;;;5005216;28;20044;-79
2023/07/07 01:27:44;;;;;;;5.60;4.68;;;12.70;99.90;;;;;;4994845;28;20045;-79
2023/07/07 01:30:29;;;;;;;4.88;4.47;;;12.70;99.90;;;;;;5021868;28;20033;-79
2023/07/07 01:32:55;;;;;;;5.35;4.43;;;12.80;99.90;;;;;;5006785;28;20492;-79
2023/07/07 01:35:23;;;;;;;4.93;4.53;;;12.70;99.90;;;;;;5000693;28;20033;-79
2023/07/07 01:37:54;;;;;;;5.97;4.53;;;12.70;99.90;;;;;;5025548;28;20052;-79
2023/07/07 01:40:21;;;;;;;5.18;4.65;;;12.70;99.90;;;;;;5033652;28;20029;-79
2023/07/07 01:42:51;;;;;;;6.28;4.72;;;12.70;99.90;;;;;;5047244;28;20032;-79
2023/07/07 01:45:43;;;;;;;6.07;4.00;;;12.70;99.90;;;;;;5015033;28;20025;-79
2023/07/07 01:48:40;;;;;;;4.93;4.40;;;12.70;99.90;;;;;;5023360;28;20295;-80
2023/07/07 01:51:10;;;;;;;5.18;4.68;;;12.70;99.90;;;;;;5012304;28;20025;-79
2023/07/07 01:53:39;;;;;;;4.72;4.32;;;12.70;99.90;;;;;;5023929;28;20026;-79
2023/07/07 01:56:05;;;;;;;5.00;4.55;;;12.60;99.90;;;;;;5011779;28;20025;-79
2023/07/07 01:58:32;;;;;;;5.82;5.20;;;12.60;99.90;;;;;;5025240;28;20131;-79
2023/07/07 02:01:00;;;;;;;4.85;4.32;;;12.60;99.90;;;;;;5028158;28;20042;-79
2023/07/07 02:03:27;;;;;;;4.80;4.13;;;12.60;99.90;;;;;;5004247;28;20072;-79
2023/07/07 02:05:52;;;;;;;4.82;4.43;;;12.60;99.90;;;;;;5029508;28;20029;-79
2023/07/07 02:08:18;;;;;;;5.13;4.63;;;12.60;99.90;;;;;;5009735;28;20489;-79
2023/07/07 02:10:44;;;;;;;4.82;4.43;;;12.60;99.90;;;;;;5001702;28;20029;-80
2023/07/07 02:13:10;;;;;;;5.18;4.68;;;12.60;99.90;;;;;;5010902;28;20048;-79
2023/07/07 02:15:35;;;;;;;4.88;4.47;;;12.60;99.90;;;;;;5007045;28;20030;-80
2023/07/07 02:18:02;;;;;;;5.35;4.88;;;12.60;99.90;;;;;;5009583;28;20053;-80
2023/07/07 02:20:27;;;;;;;4.97;4.57;;;12.50;99.90;;;;;;5018806;28;20422;-80
2023/07/07 02:22:53;;;;;;;4.50;4.10;;;12.60;99.90;;;;;;5024545;28;20029;-80
2023/07/07 02:25:19;;;;;;;5.20;4.70;;;12.50;99.90;;;;;;5004054;28;20021;-80
2023/07/07 02:27:44;;;;;;;5.18;4.78;;;12.50;99.90;;;;;;5018911;28;20089;-80
2023/07/07 02:30:10;;;;;;;5.63;4.88;;;12.50;99.90;;;;;;5009597;28;20021;-80
2023/07/07 02:32:36;;;;;;;5.20;4.70;;;12.50;99.90;;;;;;5005481;28;20049;-79
2023/07/07 02:35:03;;;;;;;5.30;4.50;;;12.50;99.90;;;;;;5031696;28;20029;-79
2023/07/07 02:37:28;;;;;;;5.15;4.65;;;12.50;99.90;;;;;;5019986;28;20030;-80
2023/07/07 02:39:57;;;;;;;5.55;4.78;;;12.50;99.90;;;;;;5012685;28;20028;-80
2023/07/07 02:42:22;;;;;;;5.63;4.32;;;12.40;99.90;;;;;;5027374;28;20546;-80
2023/07/07 02:44:48;;;;;;;5.13;4.63;;;12.40;99.90;;;;;;5021922;28;20029;-80
2023/07/07 02:47:13;;;;;;;4.60;4.15;;;12.40;99.90;;;;;;5009142;28;20098;-79
2023/07/07 02:49:39;;;;;;;4.85;4.25;;;12.40;99.90;;;;;;5011065;28;20030;-79
2023/07/07 02:52:06;;;;;;;5.45;4.32;;;12.40;99.90;;;;;;5026627;28;20208;-80
2023/07/07 02:54:32;;;;;;;6.00;4.57;;;12.40;99.90;;;;;;5008731;28;20040;-79
2023/07/07 02:56:58;;;;;;;4.97;4.47;;;12.40;99.90;;;;;;5007208;28;20029;-79
2023/07/07 02:59:23;;;;;;;5.22;4.68;;;12.40;99.90;;;;;;5028309;28;20036;-80
2023/07/07 03:01:49;;;;;;;5.32;4.82;;;12.40;99.90;;;;;;5022526;28;20026;-79
2023/07/07 03:04:14;;;;;;;6.03;4.72;;;12.40;99.90;;;;;;5022778;28;20723;-79
2023/07/07 03:06:40;;;;;;;6.05;5.25;;;12.40;99.90;;;;;;5026493;28;20085;-79
2023/07/07 03:09:10;;;;;;;5.05;4.57;;;12.40;99.90;;;;;;5021371;28;20037;-80
2023/07/07 03:11:36;;;;;;;5.47;4.18;;;12.40;99.90;;;;;;5026418;28;20065;-79
2023/07/07 03:14:02;;;;;;;5.22;4.72;;;12.40;99.90;;;;;;5002362;28;20037;-79
2023/07/07 03:16:32;;;;;;;5.30;4.80;;;12.40;99.90;;;;;;5027371;28;20037;-79
2023/07/07 03:19:08;;;;;;;4.88;4.47;;;12.40;99.90;;;;;;5008755;28;20116;-79
2023/07/07 03:21:33;;;;;;;6.55;4.85;;;12.30;99.90;;;;;;5029778;28;20033;-79
2023/07/07 03:23:59;;;;;;;5.25;4.78;;;12.30;99.90;;;;;;5025352;28;20042;-79
2023/07/07 03:26:26;;;;;;;5.28;4.78;;;12.40;99.90;;;;;;5010118;28;20029;-80
2023/07/07 03:28:53;;;;;;;6.45;5.28;;;12.40;99.90;;;;;;5008133;28;20497;-79
2023/07/07 03:31:23;;;;;;;5.43;4.93;;;12.40;99.90;;;;;;5028651;28;20037;-80
2023/07/07 03:33:54;;;;;;;5.05;4.65;;;12.40;99.90;;;;;;5001758;28;20106;-79
2023/07/07 03:36:24;;;;;;;5.68;5.18;;;12.40;99.90;;;;;;5011009;28;20456;-78
2023/07/07 03:38:50;;;;;;;5.03;4.53;;;12.40;99.90;;;;;;5005358;28;20617;-79
2023/07/07 03:41:18;;;;;;;7.25;5.70;;;12.50;99.90;;;;;;5026653;28;20053;-79
2023/07/07 03:43:47;;;;;;;5.10;4.60;;;12.40;99.90;;;;;;5004154;28;20528;-78
2023/07/07 03:46:14;;;;;;;5.68;4.57;;;12.50;99.90;;;;;;5009348;28;20036;-79
2023/07/07 03:48:40;;;;;;;5.03;4.63;;;12.50;99.90;;;;;;5006859;28;20018;-79
2023/07/07 03:51:06;;;;;;;6.03;4.82;;;12.50;99.90;;;;;;5014632;28;20017;-79
2023/07/07 03:53:32;;;;;;;6.25;5.65;;;12.60;99.90;;;;;;5008483;28;20018;-79
2023/07/07 03:55:58;;;;;;;6.13;5.03;;;12.60;99.90;;;;;;5008567;28;20647;-79
2023/07/07 03:58:26;;;;;;;5.07;4.57;;;12.70;99.90;;;;;;5022487;28;20620;-79
2023/07/07 04:00:52;;;;;;;5.70;5.13;;;12.70;99.90;;;;;;5026781;28;20114;-79
2023/07/07 04:03:18;;;;;;;5.47;4.97;;;12.70;99.90;;;;;;5010470;28;20725;-79
2023/07/07 04:05:46;;;;;;;5.78;5.10;;;12.80;99.90;;;;;;5008324;28;20090;-79
2023/07/07 04:08:12;;;;;;;5.22;4.82;;;12.80;99.90;;;;;;5007834;28;20540;-79
2023/07/07 04:10:40;;;;;;;7.93;4.70;;;12.90;99.90;;;;;;5023731;28;20107;-79
2023/07/07 04:13:07;;;;;;;4.97;4.47;;;12.80;99.90;;;;;;5018616;28;20022;-79
2023/07/07 04:15:33;;;;;;;7.88;5.15;;;12.90;99.90;;;;;;5026190;28;20029;-79
2023/07/07 04:17:59;;;;;;;5.65;5.25;;;12.90;99.90;;;;;;5001911;28;20045;-78
2023/07/07 04:20:25;;;;;;;5.57;5.07;;;12.90;99.90;;;;;;5020530;28;20030;-79
2023/07/07 04:22:51;;;;;;;5.97;5.22;;;12.90;99.90;;;;;;5018182;28;20025;-79
2023/07/07 04:25:17;;;;;;;5.38;4.88;;;12.90;99.90;;;;;;5008670;28;20075;-79
2023/07/07 04:27:44;;;;;;;4.80;4.40;;;13.00;99.90;;;;;;5007369;28;20018;-79
2023/07/07 04:30:11;;;;;;;5.07;4.68;;;13.00;99.90;;;;;;5018568;28;20025;-79
2023/07/07 04:32:37;;;;;;;6.00;4.35;;;13.00;99.90;;;;;;5023014;28;20017;-79
2023/07/07 04:35:04;;;;;;;5.88;4.50;;;13.00;99.90;;;;;;5019044;28;20499;-79
2023/07/07 04:37:30;;;;;;;5.28;4.70;;;13.10;99.90;;;;;;5029708;28;20025;-79
2023/07/07 04:39:56;;;;;;;4.50;4.10;;;13.10;99.90;;;;;;5028159;28;20029;-79
2023/07/07 04:42:22;;;;;;;5.03;4.50;;;13.10;99.90;;;;;;5010961;28;20036;-79
2023/07/07 04:44:47;;;;;;;5.25;4.75;;;13.10;99.90;;;;;;4998743;28;20077;-79
2023/07/07 04:47:13;;;;;;;5.57;4.53;;;13.10;99.90;;;;;;5030679;28;20033;-79
2023/07/07 04:49:39;;;;;;;7.55;5.25;;;13.10;99.90;;;;;;5009119;28;20029;-79
2023/07/07 04:52:05;;;;;;;5.30;4.13;;;13.20;99.90;;;;;;5013395;28;20049;-79
2023/07/07 04:54:30;;;;;;;9.25;5.47;;;13.30;99.90;;;;;;5020400;28;20489;-80
2023/07/07 04:56:56;;;;;;;8.40;5.13;;;13.30;99.90;;;;;;5002243;28;20041;-79
2023/07/07 04:59:21;;;;;;;6.32;4.90;;;13.30;99.90;;;;;;5007300;28;20063;-79
2023/07/07 05:01:47;;;;;;;5.38;4.85;;;13.40;99.90;;;;;;5018371;28;20099;-80
2023/07/07 05:04:13;;;;;;;6.40;5.10;;;13.40;99.90;;;;;;5002590;28;20092;-79
2023/07/07 05:06:39;;;;;;;8.23;4.80;;;13.50;99.90;;;;;;5009680;28;20025;-79
2023/07/07 05:09:10;;;;;;;5.35;4.15;;;13.60;99.90;;;;;;5008041;28;20079;-79
2023/07/07 05:11:36;;;;;;;6.28;4.95;;;13.70;99.90;;;;;;5027630;28;20018;-79
2023/07/07 05:14:03;;;;;;;5.88;4.60;;;13.70;99.90;;;;;;5021590;28;20022;-80
2023/07/07 05:16:36;;;;;;;9.43;4.95;;;13.80;99.90;;;;;;5010558;28;20113;-79
2023/07/07 05:19:02;;;;;;;7.50;4.60;;;13.80;99.90;;;;;;5016968;28;20029;-79
2023/07/07 05:21:28;;;;;;;4.80;4.30;;;13.90;99.90;;;;;;5010324;28;20345;-79
2023/07/07 05:23:54;;;;;;;6.88;4.72;;;13.90;99.90;;;;;;5010460;28;20055;-79
2023/07/07 05:26:21;;;;;;;5.22;3.75;;;14.00;99.90;;;;;;5012935;28;20029;-79
2023/07/07 05:28:47;;;;;;;4.97;4.55;;;14.10;99.90;;;;;;5021926;28;20044;-79
2023/07/07 05:31:13;;;;;;;5.90;3.75;;;14.10;99.90;;;;;;5009284;28;20033;-79
2023/07/07 05:33:39;;;;;;;4.95;4.55;;;14.20;99.90;;;;;;5028310;28;20048;-79
2023/07/07 05:36:08;;;;;;;5.45;4.35;;;14.30;99.90;;;;;;5002987;28;20029;-79
2023/07/07 05:38:35;;;;;;;4.45;4.05;;;14.40;99.90;;;;;;5020516;28;20030;-79
2023/07/07 05:41:00;;;;;;;5.03;3.78;;;14.40;99.90;;;;;;5025366;28;20121;-79
2023/07/07 05:43:27;;;;;;;5.43;4.10;;;14.50;99.90;;;;;;5005410;28;20034;-79
2023/07/07 05:46:03;;;;;;;4.93;4.03;;;14.60;99.90;;;;;;5008060;28;20025;-80
2023/07/07 05:48:28;;;;;;;4.00;3.58;;;14.70;99.90;;;;;;5023920;28;20072;-80
2023/07/07 05:50:56;;;;;;;5.28;4.03;;;14.90;99.90;;;;;;5033661;28;20017;-79
2023/07/07 05:53:22;;;;;;;6.60;4.90;;;15.00;99.90;;;;;;5006060;28;20117;-80
2023/07/07 05:55:48;;;;;;;5.53;4.05;;;15.20;99.90;;;;;;5008519;28;20053;-80
2023/07/07 05:58:15;;;;;;;4.72;3.75;;;15.30;99.90;;;;;;5012113;28;20026;-80
2023/07/07 06:00:41;;;;;;;4.20;3.42;;;15.50;99.90;;;;;;5008407;28;20053;-80
2023/07/07 06:03:07;;;;;;;3.85;3.45;;;15.70;99.90;;;;;;5014042;28;20040;-80
2023/07/07 06:05:33;;;;;;;5.10;3.78;;;15.80;99.90;;;;;;5024547;28;20018;-79
2023/07/07 06:07:59;;;;;;;3.53;3.22;;;16.00;99.90;;;;;;5015469;28;20022;-80
2023/07/07 06:10:25;;;;;;;4.55;3.22;;;16.10;99.90;;;;;;5018289;28;20014;-79
2023/07/07 06:12:51;;;;;;;5.32;3.47;;;16.30;99.90;;;;;;5018275;28;20705;-79
2023/07/07 06:15:17;;;;;;;5.80;3.70;;;16.50;99.90;;;;;;5027527;28;20381;-80
2023/07/07 06:17:44;;;;;;;5.93;3.72;;;16.60;99.90;;;;;;5007666;28;20026;-79
2023/07/07 06:20:11;;;;;;;4.70;3.80;;;16.80;99.90;;;;;;5011372;28;20116;-80
2023/07/07 06:22:37;;;;;;;6.32;3.55;;;16.90;99.90;;;;;;5007119;28;20018;-79
2023/07/07 06:25:03;;;;;;;4.85;3.55;;;17.10;99.90;;;;;;5014334;28;20028;-80
2023/07/07 06:27:29;;;;;;;4.82;3.35;;;17.30;99.90;;;;;;5006634;28;20394;-80
2023/07/07 06:29:55;;;;;;;4.93;3.38;;;17.40;99.90;;;;;;5016813;28;20040;-80
2023/07/07 06:32:20;;;;;;;4.40;3.75;;;17.60;99.90;;;;;;5006280;28;20037;-79
2023/07/07 06:34:46;;;;;;;4.65;3.90;;;17.70;99.90;;;;;;5024312;28;20021;-79
2023/07/07 06:37:11;;;;;;;6.93;3.72;;;17.90;99.90;;;;;;5011068;28;20116;-80
2023/07/07 06:39:37;;;;;;;5.07;3.38;;;18.00;99.90;;;;;;5023311;28;20079;-80
2023/07/07 06:42:02;;;;;;;5.93;3.50;;;18.20;99.90;;;;;;5008030;28;20112;-80
2023/07/07 06:44:28;;;;;;;3.47;3.05;;;18.30;99.90;;;;;;5021804;28;20049;-80
2023/07/07 06:46:54;;;;;;;5.15;3.53;;;18.40;99.90;;;;;;5009199;28;20128;-79
2023/07/07 06:49:19;;;;;;;4.18;3.13;;;18.60;99.90;;;;;;5025053;28;20497;-79
2023/07/07 06:51:45;;;;;;;4.18;3.03;;;18.70;99.90;;;;;;5005896;28;20029;-79
2023/07/07 06:54:11;;;;;;;5.97;3.00;;;18.80;99.90;;;;;;5003589;28;20057;-81
2023/07/07 06:56:37;;;;;;;3.63;2.72;;;18.90;99.90;;;;;;5000239;28;20373;-81
2023/07/07 06:59:06;;;;;;;9.23;7.18;;;19.10;99.90;;;;;;5002529;28;20035;-79
2023/07/07 07:01:31;;;;;;;4.03;3.60;;;19.20;99.90;;;;;;5005051;28;20061;-81
2023/07/07 07:04:00;;;;;;;6.50;3.45;;;19.30;99.90;;;;;;4997512;28;20058;-80
2023/07/07 07:06:29;;;;;;;4.38;3.10;;;19.50;99.90;;;;;;5001534;28;20586;-79
2023/07/07 07:08:55;;;;;;;3.88;3.40;;;19.60;99.90;;;;;;5027589;28;20018;-79
2023/07/07 07:11:20;;;;;;;4.57;3.42;;;19.70;99.90;;;;;;5002320;28;20048;-79
2023/07/07 07:13:47;;;;;;;4.55;3.08;;;19.80;99.90;;;;;;5002506;28;20013;-79
2023/07/07 07:16:12;;;;;;;2.50;2.30;;;20.00;99.90;;;;;;5008577;28;20176;-79
2023/07/07 07:18:38;;;;;;;4.80;2.90;;;20.10;99.90;;;;;;5002850;28;20116;-79
2023/07/07 07:21:04;;;;;;;4.40;2.67;;;20.20;99.90;;;;;;5003201;28;20230;-81
2023/07/07 07:23:29;;;;;;;3.22;2.55;;;20.30;99.90;;;;;;5006726;28;20029;-82
2023/07/07 07:25:55;;;;;;;4.90;2.55;;;20.50;99.90;;;;;;5028065;28;20021;-79
2023/07/07 07:28:20;;;;;;;4.18;2.53;;;20.70;99.90;;;;;;5007455;28;20054;-81
2023/07/07 07:30:46;;;;;;;2.30;2.10;;;20.80;99.90;;;;;;4999419;28;20503;-77
2023/07/07 07:33:20;;;;;;;4.10;2.40;;;21.00;99.90;;;;;;5013374;28;20026;-77
2023/07/07 07:35:46;;;;;;;3.17;2.25;;;21.10;99.90;;;;;;5023075;28;20017;-78
2023/07/07 07:40:40;;;;;;;2.33;2.15;;;21.30;99.90;;;;;;4996604;28;20046;-62
2023/07/07 07:43:06;;;;;;;3.30;2.72;;;21.50;99.90;;;;;;4997571;28;20025;-62
2023/07/07 07:45:31;;;;;;;3.95;2.40;;;21.70;99.90;;;;;;5002851;28;20038;-61
2023/07/07 07:47:57;;;;;;;3.60;2.03;;;21.80;99.90;;;;;;4991444;28;20029;-62
2023/07/07 07:50:23;;;;;;;3.50;2.20;;;21.90;99.90;;;;;;5004141;28;20029;-60
2023/07/07 07:52:48;;;;;;;3.38;2.05;;;22.00;99.90;;;;;;4995376;28;20532;-62
2023/07/07 07:55:14;;;;;;;3.72;1.95;;;22.10;99.90;;;;;;5003606;28;20244;-62
2023/07/07 07:57:41;;;;;;;4.25;2.30;;;22.20;99.90;;;;;;5001682;28;20098;-63
2023/07/07 08:00:07;;;;;;;3.40;1.88;;;22.30;99.90;;;;;;5001299;28;20482;-61
2023/07/07 08:02:34;;;;;;;3.75;1.95;;;22.60;99.90;;;;;;5001025;28;20033;-62
2023/07/07 08:05:00;;;;;;;4.10;2.10;;;22.60;99.90;;;;;;4999793;28;20031;-61
2023/07/07 08:07:26;;;;;;;2.78;2.05;;;22.70;99.90;;;;;;4997166;28;20037;-61
2023/07/07 08:09:51;;;;;;;4.47;1.88;;;22.90;99.90;;;;;;5005562;28;20021;-62
2023/07/07 08:12:17;;;;;;;3.63;2.20;;;23.00;99.90;;;;;;5003131;28;20018;-62
2023/07/07 08:14:43;;;;;;;3.85;2.22;;;23.20;99.90;;;;;;5004031;28;20632;-61
2023/07/07 08:17:13;;;;;;;3.08;1.77;;;23.40;99.90;;;;;;4999375;28;20118;-62
2023/07/07 08:19:41;;;;;;;2.38;1.80;;;23.50;99.90;;;;;;4989037;28;20029;-62
2023/07/07 08:22:10;;;;;;;8.10;1.60;;;23.50;99.90;;;;;;4999425;28;20029;-60
2023/07/07 08:24:39;;;;;;;4.72;1.70;;;23.60;99.70;;;;;;5007589;28;20022;-63
2023/07/07 08:27:05;;;;;;;3.88;1.90;;;23.70;99.90;;;;;;5000072;28;20306;-61
2023/07/07 08:29:31;;;;;;;3.05;2.08;;;23.90;99.90;;;;;;4996941;28;20026;-62
2023/07/07 08:31:56;;;;;;;2.45;1.90;;;24.00;99.70;;;;;;5005432;28;20510;-60
2023/07/07 08:34:22;;;;;;;4.03;2.03;;;24.10;99.70;;;;;;4998199;28;20081;-62
2023/07/07 08:36:48;;;;;;;1.85;1.67;;;24.10;98.20;;;;;;5003561;28;20034;-63
2023/07/07 08:39:17;;;;;;;2.28;1.92;;;24.30;98.50;;;;;;5001186;28;20030;-61
2023/07/07 08:41:49;;;;;;;4.40;1.60;;;24.30;97.40;;;;;;5005085;28;20034;-61
2023/07/07 08:44:18;;;;;;;3.10;1.77;;;24.50;98.50;;;;;;5002732;28;20034;-62
2023/07/07 08:46:52;;;;;;;4.03;2.00;;;24.60;97.40;;;;;;5004722;28;20554;-62
2023/07/07 08:49:25;;;;;;;3.75;1.88;;;24.70;97.50;;;;;;4984721;28;20489;-62
2023/07/07 08:52:04;;;;;;;3.28;1.70;;;24.80;97.80;;;;;;5004734;28;20022;-60
2023/07/07 08:54:38;;;;;;;2.05;1.85;;;24.70;93.20;;;;;;4998561;28;20026;-62
2023/07/07 08:57:10;;;;;;;5.00;1.70;;;24.80;96.80;;;;;;5007232;28;20026;-62
2023/07/07 08:59:48;;;;;;;2.53;1.67;;;24.80;97.00;;;;;;5000327;28;20052;-62
2023/07/07 09:02:52;;;;;;;4.85;1.83;;;25.00;96.50;;;;;;5003769;28;20038;-62
2023/07/07 09:05:36;;;;;;;4.63;2.00;;;24.80;94.60;;;;;;4997699;28;20411;-62
2023/07/07 09:08:22;;;;;;;4.20;2.05;;;24.90;96.60;;;;;;4994400;28;20022;-62
2023/07/07 09:11:31;;;;;;;3.47;1.85;;;24.90;94.60;;;;;;5001097;28;20061;-60
2023/07/07 09:13:58;;;;;;;3.50;1.88;;;25.10;95.10;;;;;;4989997;28;20095;-62
2023/07/07 09:16:32;;;;;;;3.08;1.52;;;25.20;95.10;;;;;;5001906;28;20060;-60
2023/07/07 09:19:07;;;;;;;3.45;1.88;;;25.30;94.50;;;;;;4981670;28;20369;-61
2023/07/07 09:21:55;;;;;;;4.43;1.80;;;25.30;93.70;;;;;;4982270;28;20022;-61
2023/07/07 09:24:45;;;;;;;2.78;1.92;;;25.30;93.60;;;;;;4983483;28;21566;-60
2023/07/07 09:27:19;;;;;;;3.72;1.50;;;25.30;94.80;;;;;;4994630;28;20041;-63
2023/07/07 09:29:49;;;;;;;3.70;1.50;;;25.40;93.50;;;;;;4978863;28;20078;-63
2023/07/07 09:32:20;;;;;;;2.17;1.58;;;25.50;93.50;;;;;;5000927;28;20760;-63
2023/07/07 09:34:46;;;;;;;2.08;1.55;;;25.40;93.00;;;;;;5000761;28;20080;-60
2023/07/07 09:37:41;;;;;;;3.53;1.58;;;25.40;93.30;;;;;;4986832;28;20033;-63
2023/07/07 09:40:20;;;;;;;4.75;1.70;;;25.50;94.30;;;;;;4993222;28;20057;-61
2023/07/07 09:43:08;;;;;;;2.42;1.63;;;25.40;92.90;;;;;;5001764;28;20610;-60
2023/07/07 09:45:52;;;;;;;2.95;1.88;;;25.50;92.10;;;;;;5005626;28;20117;-62
2023/07/07 09:48:37;;;;;;;3.67;2.80;;;25.50;91.30;;;;;;5002663;28;20026;-63
2023/07/07 09:51:22;;;;;;;2.33;1.50;;;25.50;93.60;;;;;;4992713;28;20072;-59
2023/07/07 09:53:49;;;;;;;3.03;1.50;;;25.40;92.20;;;;;;4998811;28;20730;-62
2023/07/07 09:56:23;;;;;;;2.90;1.33;;;25.40;92.20;;;;;;4996446;28;20030;-62
2023/07/07 09:59:02;;;;;;;3.22;1.83;;;25.40;93.20;;;;;;4981529;28;20022;-62
2023/07/07 10:01:33;;;;;;;3.05;1.80;;;25.40;91.90;;;;;;4996506;28;20447;-62
2023/07/07 10:04:00;;;;;;;3.35;1.77;;;25.40;91.20;;;;;;4998034;28;20033;-62
2023/07/07 10:06:38;;;;;;;1.63;1.40;;;25.40;91.10;;;;;;4999759;28;20052;-60
2023/07/07 10:09:07;;;;;;;4.07;1.75;;;25.40;93.40;;;;;;4998233;28;20044;-61
2023/07/07 10:11:36;;;;;;;3.17;1.77;;;25.30;90.00;;;;;;5000291;28;20108;-63
2023/07/07 10:14:05;;;;;;;2.47;1.33;;;25.20;91.70;;;;;;4998857;28;20030;-61
2023/07/07 10:16:30;;;;;;;1.83;1.70;;;25.20;92.70;;;;;;5001275;28;20519;-63
2023/07/07 10:19:14;;;;;;;4.45;1.90;;;25.20;90.50;;;;;;5000548;28;20022;-60
2023/07/07 10:21:42;;;;;;;2.50;1.27;;;25.20;91.40;;;;;;4998203;28;20059;-59
2023/07/07 10:24:11;;;;;;;3.90;1.80;;;25.10;91.00;;;;;;5001839;28;20034;-62
2023/07/07 10:26:39;;;;;;;2.15;1.27;;;25.20;92.90;;;;;;5002388;28;20026;-61
2023/07/07 10:29:11;;;;;;;2.10;1.58;;;25.20;92.50;;;;;;4987560;28;20029;-62
2023/07/07 10:31:42;;;;;;;2.17;1.40;;;25.20;92.80;;;;;;5003130;28;20029;-59
2023/07/07 10:34:20;;;;;;;3.28;1.40;;;25.20;90.70;;;;;;4979105;28;20029;-63
2023/07/07 10:36:46;;;;;;;2.22;1.50;;;25.00;91.80;;;;;;5004217;28;20073;-62
2023/07/07 10:39:12;;;;;;;1.88;1.30;;;25.00;91.60;;;;;;4997006;28;20428;-62
2023/07/07 10:41:38;;;;;;;3.42;1.70;;;25.00;90.70;;;;;;5000796;28;20049;-60
2023/07/07 10:44:03;;;;;;;4.40;2.00;;;25.00;90.40;;;;;;4995692;28;20029;-62
2023/07/07 10:46:29;;;;;;;1.63;1.52;;;24.90;92.40;;;;;;4998883;28;20019;-60
2023/07/07 10:48:56;;;;;;;2.85;1.77;;;24.90;91.00;;;;;;5000137;28;20029;-62
2023/07/07 10:51:40;;;;;;;2.08;1.80;;;24.90;91.10;;;;;;4997991;28;20029;-62
2023/07/07 10:54:17;;;;;;;3.58;1.83;;;24.90;91.10;;;;;;4992505;28;20041;-61
2023/07/07 10:56:54;;;;;;;4.25;2.00;;;24.90;90.40;;;;;;4997765;28;20022;-61
2023/07/07 10:59:45;;;;;;;2.45;1.83;;;24.90;90.90;;;;;;4982591;28;20033;-62
2023/07/07 11:02:33;;;;;;;1.60;1.50;;;24.80;92.00;;;;;;4999173;28;20049;-61
2023/07/07 11:05:02;;;;;;;1.73;1.63;;;24.80;90.60;;;;;;4992881;28;20022;-62
2023/07/07 11:07:38;;;;;;;2.20;1.60;;;24.80;92.10;;;;;;5004381;28;20022;-61
2023/07/07 11:10:10;;;;;;;2.13;1.83;;;24.80;87.50;;;;;;4997405;28;20702;-60
2023/07/07 11:13:06;;;;;;;4.05;2.03;;;24.70;90.20;;;;;;4998359;28;20153;-62
2023/07/07 11:16:01;;;;;;;2.83;1.80;;;24.60;90.00;;;;;;4980370;28;20511;-62
2023/07/07 11:18:32;;;;;;;3.03;1.75;;;24.70;91.80;;;;;;4998857;28;20069;-62
2023/07/07 11:20:58;;;;;;;3.75;1.67;;;24.80;91.70;;;;;;4999483;28;20021;-60
2023/07/07 11:23:33;;;;;;;3.72;1.95;;;24.80;88.10;;;;;;4997752;28;20041;-63
2023/07/07 11:26:19;;;;;;;4.17;1.90;;;24.80;90.10;;;;;;4991242;28;20033;-61
2023/07/07 11:29:03;;;;;;;3.20;2.28;;;24.80;88.20;;;;;;4993421;28;20072;-60
2023/07/07 11:31:45;;;;;;;3.00;1.45;;;24.70;91.30;;;;;;5005901;28;20046;-61
2023/07/07 11:34:28;;;;;;;4.35;2.15;;;24.70;87.90;;;;;;5000291;28;20046;-61
2023/07/07 11:37:30;;;;;;;2.53;1.63;;;24.70;90.70;;;;;;5000257;28;20033;-58
2023/07/07 11:40:10;;;;;;;1.77;1.60;;;24.70;89.70;;;;;;4998555;28;20061;-62
2023/07/07 11:43:09;;;;;;;1.77;1.55;;;24.70;90.30;;;;;;5001333;28;20045;-62
2023/07/07 11:46:34;;;;;;;1.92;1.48;;;24.70;90.60;;;;;;5002932;28;20034;-60
2023/07/07 11:49:06;;;;;;;1.98;1.60;;;24.70;88.20;;;;;;4987326;28;20064;-62
2023/07/07 11:51:41;;;;;;;2.00;1.67;;;24.60;86.40;;;;;;5003859;28;20102;-60
2023/07/07 11:54:27;;;;;;;1.77;1.67;;;24.70;85.30;;;;;;4982993;28;20022;-62
2023/07/07 11:57:29;;;;;;;2.83;1.77;;;24.70;87.50;;;;;;4996185;28;20045;-62
2023/07/07 11:59:58;;;;;;;3.25;1.70;;;24.80;91.00;;;;;;4993767;28;20124;-60
2023/07/07 12:02:47;;;;;;;4.60;1.77;;;24.90;89.50;;;;;;5001115;28;20033;-63
2023/07/07 12:05:19;;;;;;;4.53;1.90;;;24.90;88.10;;;;;;4981807;28;20033;-61
2023/07/07 12:07:48;;;;;;;3.67;2.10;;;24.90;87.90;;;;;;4984368;28;20497;-61
2023/07/07 12:10:27;;;;;;;2.58;2.00;;;25.00;89.10;;;;;;4999179;28;20397;-62
2023/07/07 12:12:55;;;;;;;3.38;2.10;;;25.00;89.50;;;;;;4993530;28;20037;-62
2023/07/07 12:15:29;;;;;;;2.33;1.80;;;25.00;86.60;;;;;;5001116;28;20022;-62
2023/07/07 12:18:10;;;;;;;2.20;1.75;;;25.00;88.80;;;;;;4997072;28;20069;-62
2023/07/07 12:20:49;;;;;;;3.33;2.05;;;25.00;87.90;;;;;;5001460;28;20387;-60
2023/07/07 12:23:21;;;;;;;3.63;1.73;;;25.10;85.60;;;;;;5000826;28;20030;-62
2023/07/07 12:25:47;;;;;;;3.40;2.10;;;25.00;85.00;;;;;;4984756;28;20025;-62
2023/07/07 12:28:13;;;;;;;3.97;2.20;;;25.00;88.00;;;;;;4994376;28;20377;-59
2023/07/07 12:30:46;;;;;;;3.00;1.88;;;25.10;86.80;;;;;;4980610;28;20100;-63
2023/07/07 12:33:13;;;;;;;2.45;1.80;;;25.20;86.80;;;;;;5004895;28;20041;-62
2023/07/07 12:35:58;;;;;;;3.22;1.55;;;25.20;88.10;;;;;;4986387;28;20622;-62
2023/07/07 12:38:33;;;;;;;2.30;1.50;;;25.30;88.00;;;;;;5005197;28;20101;-61
2023/07/07 12:41:13;;;;;;;2.28;1.77;;;25.40;86.20;;;;;;4985195;28;20030;-61
2023/07/07 12:43:43;;;;;;;2.42;1.90;;;25.50;88.90;;;;;;5000797;28;20034;-59
2023/07/07 12:46:31;;;;;;;3.15;1.60;;;25.50;86.90;;;;;;5007027;28;20049;-60
2023/07/07 12:48:58;;;;;;;1.63;1.52;;;25.70;88.90;;;;;;4990158;28;20029;-59
2023/07/07 12:51:27;;;;;;;2.42;1.60;;;25.70;85.30;;;;;;5007117;28;20026;-61
2023/07/07 12:53:54;;;;;;;2.22;1.83;;;25.80;86.70;;;;;;4990254;28;20022;-62
2023/07/07 12:56:29;;;;;;;3.17;1.73;;;25.90;86.40;;;;;;5001206;28;20026;-62
2023/07/07 12:58:57;;;;;;;2.42;2.03;;;25.90;80.80;;;;;;4991253;28;20048;-62
2023/07/07 13:01:23;;;;;;;2.13;1.90;;;25.90;82.70;;;;;;5000909;28;20085;-62
2023/07/07 13:04:07;;;;;;;2.92;1.60;;;25.90;82.70;;;;;;4999921;28;20108;-62
2023/07/07 13:06:36;;;;;;;2.42;2.22;;;26.00;81.80;;;;;;5000513;28;20025;-62
2023/07/07 13:09:18;;;;;;;3.65;1.83;;;26.00;83.10;;;;;;4987862;28;20026;-61